Time;durP1;ratioP1;P1;durP2;ratioP2;P2;SDS_P1;SDS_P2;PMS_P1;PMS_P2;Temp;Humidity;BMP_temperature;BMP_pressure;BME280_temperature;BME280_humidity;BME280_pressure;Samples;Min_cycle;Max_cycle;Signal;HPM_P1;HPM_P2
2022/06/27 00:01:45;;;;;;;2.87;2.40;;;;;;;14.34;80.86;95925.30;1797549;79;21485;-64
2022/06/27 00:04:12;;;;;;;7.22;2.80;;;;;;;14.31;81.14;95920.95;1777279;80;21020;-64
2022/06/27 00:06:39;;;;;;;5.17;2.80;;;;;;;14.29;82.28;95918.36;1797298;79;21008;-64
2022/06/27 00:09:06;;;;;;;3.77;2.70;;;;;;;14.23;83.12;95914.53;1797272;80;21055;-64
2022/06/27 00:11:33;;;;;;;4.62;2.60;;;;;;;14.24;82.50;95923.39;1797160;79;21020;-64
2022/06/27 00:14:00;;;;;;;3.58;2.55;;;;;;;14.21;82.53;95927.00;1797202;80;21475;-64
2022/06/27 00:16:27;;;;;;;3.27;2.40;;;;;;;14.20;82.29;95923.91;1797446;79;20978;-64
2022/06/27 00:18:54;;;;;;;3.70;2.40;;;;;;;14.29;82.21;95919.69;1797178;79;21482;-64
2022/06/27 00:21:21;;;;;;;3.62;2.55;;;;;;;14.29;81.75;95917.03;1797536;79;21486;-64
2022/06/27 00:23:48;;;;;;;4.40;2.40;;;;;;;14.30;81.63;95920.55;1797350;79;21007;-64
2022/06/27 00:26:14;;;;;;;3.92;2.35;;;;;;;14.34;81.57;95915.58;1797297;79;20967;-64
2022/06/27 00:28:41;;;;;;;5.70;2.45;;;;;;;14.37;81.48;95910.64;1797726;79;20976;-64
2022/06/27 00:31:08;;;;;;;3.80;2.47;;;;;;;14.35;81.99;95910.67;1797616;79;21003;-64
2022/06/27 00:33:35;;;;;;;2.58;2.37;;;;;;;14.31;81.84;95915.64;1797232;80;20980;-64
2022/06/27 00:36:02;;;;;;;3.75;2.40;;;;;;;14.31;82.48;95917.43;1797635;80;20948;-64
2022/06/27 00:38:28;;;;;;;3.25;2.35;;;;;;;14.25;82.53;95915.36;1797562;79;20996;-64
2022/06/27 00:40:55;;;;;;;2.40;2.02;;;;;;;14.19;82.19;95920.86;1797769;79;21060;-64
2022/06/27 00:43:22;;;;;;;2.83;2.42;;;;;;;14.13;81.80;95911.72;1797552;79;21059;-64
2022/06/27 00:45:48;;;;;;;4.35;2.00;;;;;;;14.13;81.69;95920.14;1797360;79;21024;-64
2022/06/27 00:48:15;;;;;;;2.87;2.33;;;;;;;14.04;81.28;95919.48;1797786;79;21000;-64
2022/06/27 00:50:42;;;;;;;3.10;2.60;;;;;;;13.98;81.36;95914.79;1769748;80;21069;-64
2022/06/27 00:53:12;;;;;;;4.12;2.50;;;;;;;13.98;81.51;95915.66;1797650;80;21463;-64
2022/06/27 00:55:40;;;;;;;4.10;2.22;;;;;;;13.91;81.52;95919.84;1797581;79;21035;-64
2022/06/27 00:58:06;;;;;;;2.65;2.30;;;;;;;13.88;81.56;95917.27;1797658;80;20940;-64
2022/06/27 01:00:33;;;;;;;1.80;1.70;;;;;;;13.91;81.89;95919.84;1797473;79;21019;-64
2022/06/27 01:03:00;;;;;;;2.77;2.40;;;;;;;13.95;81.38;95920.19;1797693;80;21014;-64
2022/06/27 01:05:27;;;;;;;2.45;2.25;;;;;;;13.82;81.88;95925.81;1797133;79;20964;-64
2022/06/27 01:07:54;;;;;;;2.40;2.20;;;;;;;13.74;82.93;95918.97;1797218;79;21027;-64
2022/06/27 01:10:21;;;;;;;3.47;2.50;;;;;;;13.67;82.31;95920.03;1797149;79;20992;-64
2022/06/27 01:12:49;;;;;;;2.95;2.40;;;;;;;13.66;82.48;95923.58;1797566;79;20977;-64
2022/06/27 01:15:16;;;;;;;3.85;2.42;;;;;;;13.62;82.35;95914.84;1797410;79;21003;-64
2022/06/27 01:17:46;;;;;;;4.15;2.50;;;;;;;13.71;82.79;95917.70;1797506;80;20960;-64
2022/06/27 01:20:12;;;;;;;3.00;2.60;;;;;;;13.73;82.22;95920.73;1797397;79;21560;-64
2022/06/27 01:22:39;;;;;;;4.05;2.30;;;;;;;13.63;81.56;95929.83;1797426;79;20980;-64
2022/06/27 01:25:08;;;;;;;2.40;2.20;;;;;;;13.55;81.76;95929.16;1797118;79;21000;-64
2022/06/27 01:27:35;;;;;;;3.45;2.30;;;;;;;13.51;82.02;95929.70;1797483;79;21010;-64
2022/06/27 01:30:03;;;;;;;4.53;2.35;;;;;;;13.51;82.12;95928.38;1797351;80;21055;-64
2022/06/27 01:32:31;;;;;;;3.25;2.40;;;;;;;13.47;82.22;95933.33;1797482;80;20972;-64
2022/06/27 01:34:58;;;;;;;3.33;2.20;;;;;;;13.50;82.27;95931.05;1796979;79;21526;-64
2022/06/27 01:37:24;;;;;;;2.98;2.35;;;;;;;13.53;81.92;95926.99;1797560;79;21473;-64
2022/06/27 01:39:51;;;;;;;3.10;2.10;;;;;;;13.45;81.54;95928.97;1797530;80;21015;-64
2022/06/27 01:42:18;;;;;;;5.22;2.45;;;;;;;13.41;82.70;95930.84;1797187;79;21031;-64
2022/06/27 01:44:45;;;;;;;7.85;2.90;;;;;;;13.37;82.43;95935.78;1797273;79;21008;-64
2022/06/27 01:47:14;;;;;;;2.40;2.20;;;;;;;13.32;83.08;95938.54;1797482;79;21438;-64
2022/06/27 01:49:46;;;;;;;3.87;2.22;;;;;;;13.40;82.97;95939.22;1796977;79;21040;-64
2022/06/27 01:52:15;;;;;;;3.00;2.40;;;;;;;13.34;82.58;95933.22;1797448;79;21011;-64
2022/06/27 01:54:43;;;;;;;5.37;2.50;;;;;;;13.34;82.86;95936.73;1797515;79;21007;-64
2022/06/27 01:57:11;;;;;;;3.95;2.37;;;;;;;13.38;82.96;95935.77;1797510;79;21449;-64
2022/06/27 01:59:38;;;;;;;2.83;2.10;;;;;;;13.44;82.74;95939.17;1797261;79;21004;-64
2022/06/27 02:02:07;;;;;;;4.33;2.45;;;;;;;13.37;82.18;95941.95;1797676;79;20952;-64
2022/06/27 02:04:37;;;;;;;3.98;2.15;;;;;;;13.33;82.07;95940.73;1797148;79;21023;-64
2022/06/27 02:07:05;;;;;;;2.70;2.50;;;;;;;13.34;81.82;95939.84;1802128;79;20991;-64
2022/06/27 02:09:32;;;;;;;4.72;2.62;;;;;;;13.36;82.14;95943.33;1805667;79;20999;-64
2022/06/27 02:12:18;;;;;;;2.30;2.10;;;;;;;13.42;82.15;95947.15;1805478;79;21075;-64
2022/06/27 02:14:31;;;;;;;2.30;2.10;;;;;;;13.46;81.47;95950.61;1803546;79;20996;-64
2022/06/27 02:16:58;;;;;;;5.12;3.27;;;;;;;13.34;81.26;95948.66;1805730;79;20952;-64
2022/06/27 02:19:26;;;;;;;3.17;2.80;;;;;;;13.38;81.60;95948.11;1805309;79;21047;-64
2022/06/27 02:21:53;;;;;;;4.67;2.30;;;;;;;13.39;81.37;95956.05;1785305;79;21026;-64
2022/06/27 02:24:19;;;;;;;4.87;2.65;;;;;;;13.32;82.16;95958.41;1805562;79;20956;-64
2022/06/27 02:26:50;;;;;;;3.92;2.25;;;;;;;13.30;82.39;95955.38;1805489;79;21008;-64
2022/06/27 02:29:16;;;;;;;2.40;2.20;;;;;;;13.23;81.30;95953.32;1805603;79;21426;-64
2022/06/27 02:31:47;;;;;;;2.67;2.30;;;;;;;13.25;81.35;95949.29;1805407;79;20975;-64
2022/06/27 02:34:15;;;;;;;2.40;2.20;;;;;;;13.14;81.34;95954.84;1805219;79;21019;-64
2022/06/27 02:36:44;;;;;;;2.85;2.50;;;;;;;13.02;81.95;95955.12;1805579;79;21015;-64
2022/06/27 02:39:18;;;;;;;2.60;2.40;;;;;;;12.89;82.41;95950.55;1805699;79;21038;-64
2022/06/27 02:41:48;;;;;;;2.60;2.40;;;;;;;12.92;82.39;95950.47;1805547;79;21011;-64
2022/06/27 02:44:15;;;;;;;2.90;2.58;;;;;;;12.93;82.39;95954.42;1805675;79;20983;-64
2022/06/27 02:46:42;;;;;;;2.67;2.37;;;;;;;12.89;81.70;95946.11;1805343;79;21031;-64
2022/06/27 02:49:10;;;;;;;5.72;2.65;;;;;;;12.91;81.65;95951.39;1805597;79;20995;-64
2022/06/27 02:51:44;;;;;;;3.65;2.33;;;;;;;12.88;81.71;95950.14;1805251;79;21023;-64
2022/06/27 02:54:22;;;;;;;4.30;2.20;;;;;;;12.79;81.54;95956.48;1765971;79;20987;-64
2022/06/27 02:57:24;;;;;;;3.25;2.42;;;;;;;12.67;83.30;95954.09;1805278;79;21080;-64
2022/06/27 02:59:54;;;;;;;4.10;2.27;;;;;;;12.60;83.21;95953.37;1805431;79;20991;-64
2022/06/27 03:02:23;;;;;;;3.80;2.80;;;;;;;12.54;83.42;95950.84;1805571;79;20985;-64
2022/06/27 03:05:03;;;;;;;5.42;2.65;;;;;;;12.59;83.14;95949.42;1804017;79;21363;-64
2022/06/27 03:07:38;;;;;;;2.55;2.35;;;;;;;12.67;82.71;95952.31;1801926;79;21008;-64
2022/06/27 03:10:06;;;;;;;3.00;2.25;;;;;;;12.64;82.87;95951.06;1799869;79;21043;-64
2022/06/27 03:12:34;;;;;;;2.77;2.50;;;;;;;12.66;83.33;95948.40;1800512;80;20999;-64
2022/06/27 03:15:00;;;;;;;8.60;2.98;;;;;;;12.62;82.98;95954.19;1800182;79;21035;-64
2022/06/27 03:17:27;;;;;;;3.77;2.50;;;;;;;12.64;84.32;95955.49;1800259;79;21473;-64
2022/06/27 03:20:12;;;;;;;2.58;2.17;;;;;;;12.69;83.97;95960.23;1799682;80;21078;-64
2022/06/27 03:22:59;;;;;;;2.58;2.37;;;;;;;12.79;84.44;95957.81;1768400;81;20992;-64
2022/06/27 03:25:27;;;;;;;3.02;2.35;;;;;;;12.89;83.98;95961.14;1768231;81;20992;-64
2022/06/27 03:27:54;;;;;;;3.80;2.55;;;;;;;12.96;83.89;95957.00;1779457;80;21512;-64
2022/06/27 03:30:23;;;;;;;3.15;2.60;;;;;;;13.07;84.36;95965.16;1800274;79;21047;-64
2022/06/27 03:32:50;;;;;;;4.85;2.72;;;;;;;13.16;84.14;95964.95;1800101;80;21008;-64
2022/06/27 03:35:19;;;;;;;3.00;2.70;;;;;;;13.19;84.69;95960.45;1800017;80;21474;-64
2022/06/27 03:37:47;;;;;;;4.20;2.70;;;;;;;13.29;84.40;95958.50;1779868;80;21418;-64
2022/06/27 03:40:13;;;;;;;5.85;2.83;;;;;;;13.44;84.05;95954.61;1800236;79;20995;-64
2022/06/27 03:42:42;;;;;;;4.50;3.10;;;;;;;13.59;83.91;95958.67;1799857;79;21023;-64
2022/06/27 03:45:10;;;;;;;6.08;3.05;;;;;;;13.72;83.58;95962.76;1800006;79;20999;-64
2022/06/27 03:47:56;;;;;;;3.25;2.80;;;;;;;13.84;83.02;95961.13;1780287;80;20995;-64
2022/06/27 03:50:25;;;;;;;3.22;2.87;;;;;;;13.84;83.03;95957.14;1761024;80;21011;-64
2022/06/27 03:52:54;;;;;;;3.30;2.60;;;;;;;13.88;83.15;95963.69;1800523;80;20987;-64
2022/06/27 03:55:23;;;;;;;5.17;3.10;;;;;;;13.95;83.35;95957.33;1800311;79;21320;-64
2022/06/27 03:57:58;;;;;;;5.17;3.42;;;;;;;14.02;83.04;95953.61;1800306;80;20972;-64
2022/06/27 04:00:33;;;;;;;3.10;2.80;;;;;;;14.05;83.21;95962.34;1800287;80;21490;-64
2022/06/27 04:02:59;;;;;;;3.87;3.47;;;;;;;14.10;83.48;95959.57;1799290;80;21036;-64
2022/06/27 04:05:27;;;;;;;4.65;3.17;;;;;;;14.09;83.64;95958.30;1795633;80;20968;-64
2022/06/27 04:07:54;;;;;;;3.08;2.77;;;;;;;14.21;84.17;95955.30;1803676;79;21086;-64
2022/06/27 04:10:22;;;;;;;2.60;2.40;;;;;;;14.35;84.68;95963.77;1805082;79;21059;-64
2022/06/27 04:12:49;;;;;;;3.15;2.37;;;;;;;14.45;83.98;95963.92;1805831;79;21024;-64
2022/06/27 04:15:28;;;;;;;4.92;2.83;;;;;;;14.51;83.69;95958.89;1805212;79;21051;-64
2022/06/27 04:18:04;;;;;;;3.15;2.85;;;;;;;14.70;83.71;95954.84;1805198;79;20999;-64
2022/06/27 04:20:50;;;;;;;3.98;2.95;;;;;;;14.87;83.39;95960.99;1750226;79;21019;-64
2022/06/27 04:23:17;;;;;;;5.20;2.90;;;;;;;15.03;83.07;95960.53;1805327;79;21446;-64
2022/06/27 04:25:49;;;;;;;7.07;3.00;;;;;;;15.14;82.54;95952.66;1782264;79;21067;-64
2022/06/27 04:28:16;;;;;;;3.70;3.02;;;;;;;15.17;81.82;95957.00;1805813;79;20976;-64
2022/06/27 04:30:44;;;;;;;3.85;3.27;;;;;;;15.20;81.96;95953.37;1805678;79;21019;-64
2022/06/27 04:33:12;;;;;;;7.42;3.10;;;;;;;15.35;82.40;95959.08;1805533;79;21045;-64
2022/06/27 04:35:46;;;;;;;4.10;3.50;;;;;;;15.52;82.66;95958.55;1805250;79;20992;-64
2022/06/27 04:38:08;;;;;;;3.80;3.10;;;;;;;15.66;82.27;95958.09;1804616;79;21481;-64
2022/06/27 04:40:56;;;;;;;3.12;2.83;;;;;;;15.77;81.98;95957.76;1773685;81;21018;-64
2022/06/27 04:43:23;;;;;;;5.72;3.30;;;;;;;15.93;81.67;95960.34;1773323;81;21110;-64
2022/06/27 04:45:50;;;;;;;3.90;3.02;;;;;;;16.02;81.05;95956.48;1784639;79;21022;-64
2022/06/27 04:48:21;;;;;;;5.37;3.02;;;;;;;16.02;81.05;95956.48;1768597;79;20995;-64
2022/06/27 04:50:48;;;;;;;3.10;2.90;;;;;;;16.14;80.30;95961.85;1805500;79;20999;-64
2022/06/27 04:53:15;;;;;;;6.92;3.27;;;;;;;16.19;79.60;95966.55;1805549;79;21019;-64
2022/06/27 04:55:42;;;;;;;3.72;2.90;;;;;;;16.30;80.01;95970.16;1805319;79;21042;-64
2022/06/27 04:58:09;;;;;;;3.65;3.35;;;;;;;16.41;79.57;95964.88;1805634;79;20972;-64
2022/06/27 05:00:36;;;;;;;3.50;3.10;;;;;;;16.47;79.61;95972.23;1805725;79;21494;-64
2022/06/27 05:03:15;;;;;;;3.98;2.90;;;;;;;16.57;79.40;95971.84;1805897;79;20982;-64
2022/06/27 05:05:44;;;;;;;3.87;2.87;;;;;;;16.68;79.06;95976.78;1805142;79;21023;-64
2022/06/27 05:08:10;;;;;;;3.47;3.15;;;;;;;16.78;78.95;95975.58;1801828;79;20991;-64
2022/06/27 05:10:37;;;;;;;4.05;3.42;;;;;;;16.87;78.13;95985.88;1800204;79;21026;-64
2022/06/27 05:13:04;;;;;;;4.08;3.52;;;;;;;16.95;78.35;95985.59;1800470;79;20987;-64
2022/06/27 05:15:31;;;;;;;6.50;4.53;;;;;;;17.06;77.81;95983.87;1800004;80;21063;-64
2022/06/27 05:17:59;;;;;;;5.12;3.67;;;;;;;17.10;77.83;95980.14;1800277;80;21517;-64
2022/06/27 05:20:27;;;;;;;7.87;3.67;;;;;;;17.19;78.02;95979.80;1800202;79;21003;-64
2022/06/27 05:22:54;;;;;;;7.37;4.92;;;;;;;17.36;78.29;95987.60;1800152;80;21047;-64
2022/06/27 05:25:21;;;;;;;10.38;3.77;;;;;;;17.50;78.16;95997.28;1799989;79;20980;-64
2022/06/27 05:27:49;;;;;;;6.12;3.33;;;;;;;17.63;78.15;95999.85;1799910;79;20968;-64
2022/06/27 05:30:16;;;;;;;6.22;3.80;;;;;;;17.71;77.97;95996.88;1800204;80;21039;-64
2022/06/27 05:32:44;;;;;;;6.95;4.60;;;;;;;17.83;78.01;96000.89;1800211;79;21008;-64
2022/06/27 05:35:11;;;;;;;7.25;4.10;;;;;;;17.95;77.94;96003.93;1800058;80;20976;-64
2022/06/27 05:37:38;;;;;;;3.30;3.05;;;;;;;18.07;77.89;96003.90;1799984;79;21020;-64
2022/06/27 05:40:08;;;;;;;4.92;3.60;;;;;;;18.21;77.68;96005.98;1800258;80;20988;-64
2022/06/27 05:42:36;;;;;;;3.52;3.20;;;;;;;18.32;76.68;96006.84;1800187;80;20995;-64
2022/06/27 05:45:04;;;;;;;5.70;3.75;;;;;;;18.44;76.12;96005.47;1799988;80;21087;-64
2022/06/27 05:47:32;;;;;;;5.83;3.92;;;;;;;18.57;76.13;96008.00;1800254;79;21023;-64
2022/06/27 05:50:05;;;;;;;5.95;3.77;;;;;;;18.71;75.94;96013.63;1798717;79;21469;-64
2022/06/27 05:52:33;;;;;;;4.95;3.50;;;;;;;18.80;74.91;96014.59;1800211;79;21002;-64
2022/06/27 05:55:02;;;;;;;4.33;3.55;;;;;;;18.83;74.60;96010.91;1800234;79;21380;-64
2022/06/27 05:57:30;;;;;;;5.67;3.40;;;;;;;18.93;74.90;96018.92;1800234;79;20952;-64
2022/06/27 05:59:56;;;;;;;5.10;3.77;;;;;;;19.07;74.93;96018.29;1800158;79;21047;-64
2022/06/27 06:02:25;;;;;;;4.92;3.77;;;;;;;19.18;74.27;96014.67;1800052;80;21008;-64
2022/06/27 06:04:53;;;;;;;4.92;3.80;;;;;;;19.29;74.48;96015.98;1800211;79;21529;-64
2022/06/27 06:07:23;;;;;;;5.47;4.05;;;;;;;19.38;74.16;96019.58;1799348;79;21137;-64
2022/06/27 06:09:51;;;;;;;6.62;3.80;;;;;;;19.45;74.03;96019.22;1797465;80;20996;-64
2022/06/27 06:12:20;;;;;;;4.03;3.62;;;;;;;19.45;72.96;96017.89;1797584;79;21047;-64
2022/06/27 06:14:47;;;;;;;4.58;3.75;;;;;;;19.44;73.37;96025.97;1797401;79;21494;-64
2022/06/27 06:17:14;;;;;;;5.30;3.98;;;;;;;19.51;73.58;96021.21;1797468;79;21008;-64
2022/06/27 06:19:41;;;;;;;6.42;4.50;;;;;;;19.54;73.30;96019.72;1797404;79;21496;-64
2022/06/27 06:22:08;;;;;;;4.35;3.95;;;;;;;19.55;73.00;96021.45;1797295;79;20992;-64
2022/06/27 06:24:35;;;;;;;5.80;3.95;;;;;;;19.60;72.89;96024.77;1797491;79;20995;-64
2022/06/27 06:27:04;;;;;;;4.22;3.92;;;;;;;19.59;72.88;96030.60;1797510;79;21016;-64
2022/06/27 06:29:30;;;;;;;5.30;4.50;;;;;;;19.61;72.21;96031.41;1797156;79;21027;-65
2022/06/27 06:31:59;;;;;;;4.20;3.80;;;;;;;19.63;72.03;96025.52;1797366;79;21039;-64
2022/06/27 06:34:26;;;;;;;4.50;4.10;;;;;;;19.70;71.98;96032.80;1797685;79;20972;-64
2022/06/27 06:36:53;;;;;;;5.97;4.20;;;;;;;19.74;71.78;96036.22;1797147;79;21526;-64
2022/06/27 06:39:20;;;;;;;6.37;4.30;;;;;;;19.80;71.78;96034.56;1797401;79;21431;-64
2022/06/27 06:41:48;;;;;;;5.25;3.75;;;;;;;19.89;71.95;96030.98;1797625;80;21144;-64
2022/06/27 06:44:18;;;;;;;4.60;3.40;;;;;;;20.05;71.97;96033.77;1797295;79;21000;-64
2022/06/27 06:46:55;;;;;;;4.53;3.50;;;;;;;20.17;69.74;96039.00;1797391;80;20992;-64
2022/06/27 06:49:40;;;;;;;4.65;3.42;;;;;;;20.28;69.81;96039.80;1797259;79;21039;-64
2022/06/27 06:52:07;;;;;;;4.08;3.47;;;;;;;20.39;70.00;96036.13;1797187;80;21481;-64
2022/06/27 06:54:33;;;;;;;4.75;3.02;;;;;;;20.55;70.17;96038.06;1797520;79;21501;-64
2022/06/27 06:57:00;;;;;;;5.35;3.70;;;;;;;20.62;69.31;96037.67;1797536;79;20976;-65
2022/06/27 06:59:27;;;;;;;5.17;3.10;;;;;;;20.71;67.96;96037.66;1797000;79;21076;-64
2022/06/27 07:01:53;;;;;;;4.12;3.75;;;;;;;20.78;67.30;96036.88;1797504;79;20987;-64
2022/06/27 07:04:20;;;;;;;3.85;3.50;;;;;;;20.87;67.62;96033.25;1797661;79;21011;-64
2022/06/27 07:06:47;;;;;;;4.65;3.52;;;;;;;20.96;66.89;96028.75;1797209;79;21406;-64
2022/06/27 07:09:14;;;;;;;5.12;3.75;;;;;;;21.02;65.15;96031.58;1797147;79;21067;-64
2022/06/27 07:11:41;;;;;;;6.90;3.90;;;;;;;20.96;65.05;96027.86;1797258;79;20971;-64
2022/06/27 07:14:08;;;;;;;3.60;3.30;;;;;;;21.05;65.88;96031.41;1797717;79;21028;-64
2022/06/27 07:16:35;;;;;;;6.60;3.58;;;;;;;21.16;63.83;96029.01;1797585;79;21035;-64
2022/06/27 07:19:03;;;;;;;4.92;3.92;;;;;;;21.24;64.53;96037.13;1797023;79;21000;-64
2022/06/27 07:21:31;;;;;;;4.55;3.65;;;;;;;21.36;64.37;96035.13;1797795;80;20956;-64
2022/06/27 07:24:00;;;;;;;6.95;3.58;;;;;;;21.50;63.97;96037.11;1797435;79;20984;-64
2022/06/27 07:26:27;;;;;;;6.60;3.87;;;;;;;21.59;63.81;96032.55;1797178;79;21529;-64
2022/06/27 07:28:55;;;;;;;5.22;3.60;;;;;;;21.77;64.01;96034.23;1797512;80;20996;-64
2022/06/27 07:31:22;;;;;;;4.12;3.60;;;;;;;21.84;62.25;96032.05;1797325;79;21019;-64
2022/06/27 07:33:54;;;;;;;4.78;3.50;;;;;;;21.86;62.03;96020.75;1797370;79;21054;-64
2022/06/27 07:36:25;;;;;;;3.65;3.35;;;;;;;21.93;62.37;96032.03;1797407;79;20989;-64
2022/06/27 07:38:50;;;;;;;7.00;3.52;;;;;;;22.04;62.00;96025.55;1797169;79;21454;-64
2022/06/27 07:41:23;;;;;;;3.62;3.33;;;;;;;22.20;61.66;96024.22;1797053;80;21510;-64
2022/06/27 07:43:48;;;;;;;5.40;3.22;;;;;;;22.31;61.31;96027.17;1796733;79;20999;-65
2022/06/27 07:46:17;;;;;;;3.45;3.15;;;;;;;22.38;59.85;96019.14;1797349;80;21016;-64
2022/06/27 07:48:46;;;;;;;3.92;3.50;;;;;;;22.47;60.67;96025.30;1797150;79;21027;-64
2022/06/27 07:51:19;;;;;;;4.62;3.20;;;;;;;22.60;60.76;96020.54;1797299;79;21007;-64
2022/06/27 07:53:46;;;;;;;4.17;3.33;;;;;;;22.79;60.99;96024.36;1795216;80;21532;-64
2022/06/27 07:56:15;;;;;;;4.42;3.20;;;;;;;22.89;59.62;96028.22;1797877;79;21083;-64
2022/06/27 07:58:43;;;;;;;3.80;3.00;;;;;;;22.95;59.77;96028.32;1797437;79;21027;-65
2022/06/27 08:01:16;;;;;;;3.27;2.92;;;;;;;23.01;58.48;96028.00;1797046;80;21004;-64
2022/06/27 08:03:51;;;;;;;3.35;3.05;;;;;;;23.17;59.91;96026.57;1797511;79;20996;-65
2022/06/27 08:06:18;;;;;;;;;;;;;;;23.30;59.13;96020.31;1798770;79;21023;-64
2022/06/27 08:08:53;;;;;;;4.03;2.95;;;;;;;23.43;59.42;96024.94;1796175;79;20091;-65
2022/06/27 08:11:23;;;;;;;3.00;2.80;;;;;;;23.54;56.66;96021.11;1797449;79;20972;-64
2022/06/27 08:13:52;;;;;;;3.22;3.02;;;;;;;23.67;57.18;96019.35;1797359;79;20992;-65
2022/06/27 08:16:21;;;;;;;4.25;2.95;;;;;;;23.78;55.37;96024.08;1797229;79;21536;-64
2022/06/27 08:18:50;;;;;;;3.77;3.10;;;;;;;23.82;54.95;96023.42;1797372;79;20988;-65
2022/06/27 08:21:23;;;;;;;3.87;3.55;;;;;;;23.85;53.84;96015.98;1797383;79;21043;-65
2022/06/27 08:23:51;;;;;;;3.58;3.27;;;;;;;23.90;53.85;96015.70;1797453;79;21016;-64
2022/06/27 08:26:18;;;;;;;3.72;3.12;;;;;;;23.90;52.94;96011.65;1797487;79;20995;-64
2022/06/27 08:28:47;;;;;;;3.40;3.10;;;;;;;23.98;54.63;96023.65;1797344;80;21044;-64
2022/06/27 08:31:15;;;;;;;4.08;3.50;;;;;;;24.07;54.85;96020.86;1797541;80;21493;-65
2022/06/27 08:33:45;;;;;;;3.75;3.45;;;;;;;24.27;55.64;96028.98;1797561;79;21474;-65
2022/06/27 08:36:14;;;;;;;3.40;3.10;;;;;;;24.47;55.43;96024.11;1797397;79;20996;-65
2022/06/27 08:38:42;;;;;;;3.50;3.17;;;;;;;24.58;54.70;96015.68;1797497;79;21052;-65
2022/06/27 08:41:11;;;;;;;6.12;3.42;;;;;;;24.57;53.38;96016.66;1797623;79;21554;-64
2022/06/27 08:43:40;;;;;;;3.60;3.20;;;;;;;24.56;52.87;96016.27;1797585;79;21036;-64
2022/06/27 08:46:09;;;;;;;3.33;3.02;;;;;;;24.74;54.39;96016.84;1797497;80;21470;-65
2022/06/27 08:48:37;;;;;;;3.83;3.40;;;;;;;24.77;51.97;96007.67;1777860;80;21079;-65
2022/06/27 08:51:05;;;;;;;3.27;2.98;;;;;;;24.87;52.21;96009.26;1797265;79;21520;-65
2022/06/27 08:53:34;;;;;;;3.15;2.95;;;;;;;25.00;53.21;96004.77;1797425;79;20996;-64
2022/06/27 08:56:02;;;;;;;3.67;3.15;;;;;;;25.21;52.76;96008.68;1797472;80;21450;-65
2022/06/27 08:58:30;;;;;;;2.95;2.62;;;;;;;25.29;52.16;96005.44;1797116;79;21474;-65
2022/06/27 09:00:57;;;;;;;2.87;2.67;;;;;;;25.42;52.56;96008.13;1797558;80;21027;-65
2022/06/27 09:03:24;;;;;;;2.77;2.58;;;;;;;25.63;51.69;96011.16;1797804;79;21020;-65
2022/06/27 09:06:00;;;;;;;5.10;2.90;;;;;;;25.77;50.90;96007.44;1797471;79;21521;-65
2022/06/27 09:08:33;;;;;;;3.95;2.70;;;;;;;25.82;49.96;96008.83;1797304;79;21454;-65
2022/06/27 09:11:01;;;;;;;2.50;2.30;;;;;;;25.86;49.68;96005.47;1797282;79;20980;-65
2022/06/27 09:13:28;;;;;;;3.42;2.55;;;;;;;25.99;50.17;95995.47;1797576;79;20956;-65
2022/06/27 09:16:04;;;;;;;2.70;2.50;;;;;;;26.13;49.89;96002.55;1797533;80;21031;-65
2022/06/27 09:18:35;;;;;;;3.80;2.47;;;;;;;26.25;47.96;95992.17;1797164;79;21462;-65
2022/06/27 09:21:09;;;;;;;2.80;2.60;;;;;;;26.30;49.17;95990.48;1797495;79;21552;-65
2022/06/27 09:24:01;;;;;;;7.78;2.87;;;;;;;26.38;48.48;95984.48;1797418;79;20988;-65
2022/06/27 09:26:31;;;;;;;5.05;2.40;;;;;;;26.43;48.21;95991.27;1797395;79;20996;-65
2022/06/27 09:29:11;;;;;;;2.67;2.47;;;;;;;26.59;47.16;95988.33;1797624;79;20980;-65
2022/06/27 09:31:42;;;;;;;3.62;2.55;;;;;;;26.73;46.97;95994.02;1797445;79;21486;-65
2022/06/27 09:34:26;;;;;;;2.80;2.60;;;;;;;26.93;47.04;95995.19;1797327;79;20984;-65
2022/06/27 09:37:01;;;;;;;2.52;2.33;;;;;;;27.09;46.81;95987.62;1797553;80;21039;-65
2022/06/27 09:39:34;;;;;;;2.98;2.30;;;;;;;27.14;44.27;95982.70;1797363;79;20967;-65
2022/06/27 09:42:10;;;;;;;4.35;2.20;;;;;;;27.27;44.07;95983.98;1797464;79;20999;-65
2022/06/27 09:44:40;;;;;;;3.02;2.20;;;;;;;27.22;42.41;95979.92;1797659;79;21532;-65
2022/06/27 09:47:25;;;;;;;3.70;2.10;;;;;;;27.34;44.31;95976.20;1796982;79;21011;-65
2022/06/27 09:49:59;;;;;;;2.62;2.00;;;;;;;27.54;43.43;95972.80;1797579;79;21003;-65
2022/06/27 09:52:24;;;;;;;2.90;2.00;;;;;;;27.76;42.23;95967.83;1797091;79;21462;-65
2022/06/27 09:54:54;;;;;;;4.80;1.90;;;;;;;27.83;40.81;95972.30;1797257;79;20975;-65
2022/06/27 09:57:22;;;;;;;2.75;1.70;;;;;;;27.94;39.33;95968.20;1797448;79;21011;-65
2022/06/27 09:59:51;;;;;;;3.70;1.98;;;;;;;28.14;39.18;95965.20;1797520;79;21513;-65
2022/06/27 10:02:21;;;;;;;2.25;1.87;;;;;;;28.40;40.50;95962.16;1797364;79;21004;-65
2022/06/27 10:04:51;;;;;;;5.47;1.90;;;;;;;28.56;38.97;95953.64;1797438;79;20968;-65
2022/06/27 10:07:21;;;;;;;2.15;1.90;;;;;;;28.63;37.86;95961.64;1797079;80;21008;-65
2022/06/27 10:09:53;;;;;;;3.77;1.90;;;;;;;28.75;38.97;95957.84;1797280;80;21019;-65
2022/06/27 10:12:31;;;;;;;2.15;1.92;;;;;;;28.85;38.83;95956.09;1797602;79;21019;-65
2022/06/27 10:15:15;;;;;;;3.20;1.95;;;;;;;28.87;36.92;95954.08;1797305;80;21517;-65
2022/06/27 10:17:49;;;;;;;3.58;2.40;;;;;;;28.89;36.91;95947.17;1797485;79;21457;-65
2022/06/27 10:20:29;;;;;;;4.83;2.20;;;;;;;28.76;35.38;95941.08;1797513;79;21000;-65
2022/06/27 10:23:23;;;;;;;3.25;1.90;;;;;;;28.69;37.04;95950.23;1797274;80;20984;-65
2022/06/27 10:25:46;;;;;;;3.05;2.05;;;;;;;28.75;36.44;95940.70;1796406;79;21068;-65
2022/06/27 10:28:18;;;;;;;3.17;1.70;;;;;;;29.01;36.60;95942.04;1797128;79;21047;-65
2022/06/27 10:30:57;;;;;;;2.08;1.90;;;;;;;29.28;36.71;95941.52;1797580;79;21004;-65
2022/06/27 10:33:29;;;;;;;2.80;1.85;;;;;;;29.49;36.35;95948.77;1797434;79;21055;-65
2022/06/27 10:36:11;;;;;;;3.12;2.05;;;;;;;29.74;35.67;95949.69;1797518;79;21031;-65
2022/06/27 10:38:52;;;;;;;2.85;2.08;;;;;;;29.82;35.99;95944.06;1797321;79;21000;-65
2022/06/27 10:41:25;;;;;;;4.40;2.10;;;;;;;29.96;35.23;95929.58;1797689;79;20952;-65
2022/06/27 10:43:54;;;;;;;5.62;2.00;;;;;;;30.02;34.95;95921.86;1796044;79;21008;-65
2022/06/27 10:46:26;;;;;;;2.42;1.60;;;;;;;30.07;34.94;95925.87;1797549;79;20968;-65
2022/06/27 10:48:56;;;;;;;3.70;1.62;;;;;;;30.15;33.54;95929.25;1797552;79;20960;-65
2022/06/27 10:51:31;;;;;;;2.45;1.57;;;;;;;30.16;33.45;95926.88;1797702;79;21031;-65
2022/06/27 10:54:11;;;;;;;4.20;1.80;;;;;;;30.18;32.09;95920.80;1797313;79;21008;-65
2022/06/27 10:56:53;;;;;;;2.70;1.72;;;;;;;30.27;32.41;95924.07;1797371;80;20980;-65
2022/06/27 10:59:29;;;;;;;3.60;1.65;;;;;;;30.41;32.00;95923.63;1796356;80;20989;-65
2022/06/27 11:02:07;;;;;;;1.82;1.72;;;;;;;30.33;31.37;95923.48;1797471;79;20976;-65
2022/06/27 11:04:37;;;;;;;3.05;1.80;;;;;;;30.19;31.91;95922.03;1797110;80;21011;-65
2022/06/27 11:07:07;;;;;;;2.72;1.45;;;;;;;30.32;31.80;95919.06;1797421;80;21003;-65
2022/06/27 11:09:47;;;;;;;3.33;1.60;;;;;;;30.61;31.44;95914.96;1797168;79;21039;-65
2022/06/27 11:12:18;;;;;;;4.25;1.72;;;;;;;30.77;31.30;95915.77;1797270;79;21047;-65
2022/06/27 11:14:52;;;;;;;2.35;1.60;;;;;;;30.92;31.32;95918.94;1797478;79;21461;-65
2022/06/27 11:17:32;;;;;;;4.55;1.60;;;;;;;31.00;30.21;95914.97;1797474;79;20988;-65
2022/06/27 11:20:29;;;;;;;2.47;1.60;;;;;;;30.67;29.00;95912.66;1781934;79;21019;-65
2022/06/27 11:22:59;;;;;;;2.17;1.30;;;;;;;30.65;30.92;95908.75;1795932;79;21517;-65
2022/06/27 11:25:28;;;;;;;3.15;1.40;;;;;;;30.92;30.29;95906.67;1797167;80;21000;-65
2022/06/27 11:33:36;;;;;;;3.47;1.77;;;;;;;31.23;29.00;95914.63;1797730;79;21023;-65
2022/06/27 11:36:04;;;;;;;2.25;1.45;;;;;;;31.15;30.46;95900.37;1797565;79;21000;-65
2022/06/27 11:38:47;;;;;;;3.00;1.85;;;;;;;31.38;29.56;95898.17;1797181;80;20991;-65
2022/06/27 11:41:16;;;;;;;2.17;1.50;;;;;;;31.42;29.51;95895.99;1797315;79;21004;-65
2022/06/27 11:44:07;;;;;;;2.47;1.62;;;;;;;31.61;29.66;95903.25;1797551;79;20991;-65
2022/06/27 11:46:45;;;;;;;3.70;1.55;;;;;;;31.58;28.50;95889.92;1796369;79;21493;-65
2022/06/27 11:49:17;;;;;;;1.72;1.50;;;;;;;31.71;29.18;95895.02;1796684;80;21035;-65
2022/06/27 11:51:48;;;;;;;4.37;1.40;;;;;;;31.63;26.70;95895.78;1797404;79;21031;-65
2022/06/27 11:54:19;;;;;;;3.80;1.70;;;;;;;31.82;28.86;95899.75;1797373;80;21019;-65